Time;durP1;ratioP1;P1;durP2;ratioP2;P2;SDS_P1;SDS_P2;PMS_P1;PMS_P2;Temp;Humidity;BMP_temperature;BMP_pressure;BME280_temperature;BME280_humidity;BME280_pressure;Samples;Min_cycle;Max_cycle;Signal;HPM_P1;HPM_P2
2023/07/28 00:00:41;;;;;;;;;;;17.30;69.10;;;16.66;61.97;96136.22;6107181;23;19921;-92
2023/07/28 00:03:49;;;;;;;;;;;;;;;;;;;;;
2023/07/28 00:06:50;;;;;;;;;;;17.30;68.60;;;16.62;62.57;96126.91;6107606;23;19928;-92
2023/07/28 00:13:21;;;;;;;;;;;;;;;;;;;;;
2023/07/28 00:16:04;;;;;;;;;;;17.20;68.70;;;16.53;61.80;96133.19;6083520;23;19928;-92
2023/07/28 00:19:24;;;;;;;;;;;;;;;;;;;;;
2023/07/28 00:22:14;;;;;;;;;;;17.10;68.40;;;16.47;62.59;96131.66;6083549;23;19921;-92
2023/07/28 00:24:48;;;;;;;;;;;17.10;68.80;;;16.43;62.27;96130.66;6061448;23;19921;-92
2023/07/28 00:27:23;;;;;;;;;;;17.10;68.70;;;16.46;62.49;96129.22;6107470;23;19921;-92
2023/07/28 00:30:09;;;;;;;;;;;;;;;;;;;;;
2023/07/28 00:32:52;;;;;;;;;;;17.10;69.00;;;16.45;62.06;96133.09;6084142;23;19937;-92
2023/07/28 00:35:50;;;;;;;;;;;17.10;68.50;;;16.37;62.01;96127.19;6086175;23;19928;-92
2023/07/28 00:38:32;;;;;;;;;;;17.10;68.40;;;16.34;62.36;96133.34;6060451;23;19928;-92
2023/07/28 00:41:18;;;;;;;;;;;17.10;68.70;;;16.29;62.39;96124.34;6083662;23;19928;-92
2023/07/28 00:44:01;;;;;;;;;;;17.00;68.50;;;16.32;62.72;96130.06;6083535;23;19921;-92
2023/07/28 00:46:48;;;;;;;;;;;17.00;69.30;;;16.37;62.56;96132.72;6106824;23;19928;-92
2023/07/28 00:50:10;;;;;;;;;;;17.00;69.20;;;16.34;62.37;96126.97;6086928;23;19928;-92
2023/07/28 00:53:05;;;;;;;;;;;17.00;68.70;;;16.36;62.66;96127.50;6106794;23;20486;-92
2023/07/28 00:56:19;;;;;;;;;;;17.00;69.00;;;16.41;62.38;96130.94;6093488;23;19925;-92
2023/07/28 01:05:54;;;;;;;;;;;;;;;;;;;;;
2023/07/28 01:09:06;;;;;;;;;;;17.10;69.00;;;16.45;62.17;96122.06;5994231;23;19922;-91
2023/07/28 01:12:39;;;;;;;;;;;17.10;68.80;;;16.47;62.72;96115.06;6106132;23;19928;-91
2023/07/28 01:19:16;;;;;;;;;;;17.10;68.80;;;16.39;62.31;96118.59;6068390;23;19928;-92
2023/07/28 01:22:43;;;;;;;;;;;17.10;68.50;;;16.34;61.99;96118.69;6107434;23;19927;-92
2023/07/28 01:33:54;;;;;;;;;;;;;;;;;;;;;
2023/07/28 01:40:25;;;;;;;;;;;;;;;;;;;;;
2023/07/28 01:43:56;;;;;;;;;;;;;;;;;;;;;
2023/07/28 01:47:37;;;;;;;;;;;;;;;;;;;;;
2023/07/28 01:51:11;;;;;;;;;;;17.00;68.40;;;16.16;62.20;96148.06;6092926;23;19928;-92
2023/07/28 01:54:58;;;;;;;;;;;;;;;;;;;;;
2023/07/28 01:58:16;;;;;;;;;;;;;;;;;;;;;
2023/07/28 02:01:46;;;;;;;;;;;;;;;;;;;;;
2023/07/28 02:12:17;;;;;;;;;;;16.80;68.50;;;16.14;62.41;96166.88;6018477;23;19927;-91
2023/07/28 02:19:46;;;;;;;;;;;;;;;;;;;;;
2023/07/28 02:54:37;;;;;;;;;;;16.70;68.70;;;15.95;61.94;96160.34;6112031;23;20265;-92
2023/07/28 11:07:13;;;;;;;;;;;20.60;61.10;;;19.93;55.89;96109.81;6130153;22;2064902;-86
2023/07/28 11:09:41;;;;;;;;;;;20.60;60.90;;;19.92;56.02;96102.63;6165501;23;19920;-87
2023/07/28 11:12:10;;;;;;;;;;;20.60;61.20;;;19.93;56.38;96107.06;6141750;23;19943;-87
2023/07/28 11:14:38;;;;;;;;;;;20.60;61.40;;;19.93;56.10;96096.78;6165955;23;19928;-87
2023/07/28 11:17:06;;;;;;;;;;;20.60;61.20;;;19.92;56.26;96100.69;6166524;23;19920;-87
2023/07/28 11:19:35;;;;;;;;;;;20.60;61.30;;;19.89;55.65;96090.25;6141548;23;19944;-86
2023/07/28 11:22:03;;;;;;;;;;;20.60;60.90;;;19.90;55.85;96091.88;6141952;23;20259;-87
2023/07/28 11:24:34;;;;;;;;;;;20.60;60.90;;;19.92;55.77;96095.13;6165727;23;19921;-87
2023/07/28 11:27:02;;;;;;;;;;;20.60;60.90;;;19.91;56.27;96089.91;6141996;23;19944;-87
2023/07/28 11:29:31;;;;;;;;;;;20.60;61.40;;;19.91;55.91;96093.50;6141852;23;19920;-87
2023/07/28 11:31:59;;;;;;;;;;;20.60;61.20;;;19.91;55.96;96095.44;6141633;23;19920;-87
2023/07/28 11:34:27;;;;;;;;;;;20.60;61.10;;;19.93;55.83;96098.72;6141478;23;19920;-87
2023/07/28 11:36:55;;;;;;;;;;;20.60;61.10;;;19.93;56.10;96104.28;6141516;23;20351;-87
2023/07/28 11:39:24;;;;;;;;;;;20.60;61.40;;;19.93;56.35;96093.16;6166267;23;19927;-87
2023/07/28 11:41:54;;;;;;;;;;;20.60;61.60;;;19.94;55.95;96094.78;6166033;23;19927;-87
2023/07/28 11:44:24;;;;;;;;;;;20.60;61.20;;;19.96;56.24;96091.66;6141070;23;19928;-87
2023/07/28 11:46:55;;;;;;;;;;;20.60;61.40;;;19.95;56.17;96087.25;6141509;23;19920;-87
2023/07/28 11:49:23;;;;;;;;;;;20.60;61.20;;;19.95;56.02;96084.47;6165894;23;19920;-87
2023/07/28 11:51:52;;;;;;;;;;;20.60;61.10;;;19.98;55.89;96086.59;6166519;23;19920;-87
2023/07/28 11:54:22;;;;;;;;;;;20.60;61.20;;;19.96;56.40;96083.34;6165664;23;19920;-87
2023/07/28 11:56:51;;;;;;;;;;;20.60;61.30;;;19.98;55.27;96081.03;6167440;23;20251;-87
2023/07/28 11:59:20;;;;;;;;;;;20.60;60.60;;;19.98;55.75;96078.25;6166589;23;19956;-87
2023/07/28 12:01:55;;;;;;;;;;;20.70;61.20;;;19.98;56.31;96070.75;6166801;23;19935;-87
2023/07/28 12:04:25;;;;;;;;;;;20.70;61.60;;;20.00;56.03;96074.00;6142504;23;19921;-87
2023/07/28 12:07:07;;;;;;;;;;;20.70;61.30;;;20.00;55.62;96064.84;6167196;23;19925;-87
2023/07/28 12:09:51;;;;;;;;;;;20.70;61.10;;;20.00;55.72;96056.50;6142846;23;19924;-87
2023/07/28 12:12:20;;;;;;;;;;;20.70;60.80;;;20.00;55.87;96062.06;6166745;23;19921;-87
2023/07/28 12:14:51;;;;;;;;;;;20.70;61.20;;;20.02;55.88;96054.22;6167141;23;20400;-87
2023/07/28 12:17:19;;;;;;;;;;;20.70;60.90;;;20.00;55.50;96051.78;6142402;23;20240;-87
2023/07/28 12:20:01;;;;;;;;;;;20.70;60.40;;;20.03;55.98;96064.19;6142864;23;19920;-87
2023/07/28 12:22:29;;;;;;;;;;;20.70;61.20;;;20.01;55.47;96058.94;6142707;23;19927;-86
2023/07/28 12:24:57;;;;;;;;;;;20.70;61.80;;;20.00;56.11;96050.97;6142262;23;19921;-87
2023/07/28 12:27:26;;;;;;;;;;;20.70;61.10;;;20.02;55.37;96054.22;6168535;23;19924;-87
2023/07/28 12:29:56;;;;;;;;;;;20.70;60.30;;;20.02;55.78;96054.22;6167160;23;19921;-87
2023/07/28 12:32:24;;;;;;;;;;;20.70;60.90;;;20.01;56.00;96058.94;6142553;23;19927;-87
2023/07/28 12:34:53;;;;;;;;;;;20.70;61.00;;;20.04;55.83;96051.94;6141773;23;20237;-87
2023/07/28 12:37:21;;;;;;;;;;;20.70;60.90;;;20.01;54.78;96052.59;6142034;23;19920;-87
2023/07/28 12:39:49;;;;;;;;;;;20.70;59.90;;;20.04;56.19;96054.69;6118099;23;19920;-86
2023/07/28 12:42:18;;;;;;;;;;;20.70;61.20;;;20.02;55.34;96054.22;6094334;23;19920;-86
2023/07/28 12:44:46;;;;;;;;;;;20.70;60.60;;;20.02;54.43;96049.47;6141980;23;19920;-86
2023/07/28 12:47:16;;;;;;;;;;;20.70;59.60;;;20.02;55.25;96049.47;6140803;23;19920;-87
2023/07/28 12:49:44;;;;;;;;;;;20.70;60.30;;;20.04;54.94;96046.38;6141560;23;19920;-87
2023/07/28 12:52:13;;;;;;;;;;;20.70;60.00;;;20.05;55.56;96037.69;6141917;23;19924;-88
2023/07/28 12:54:42;;;;;;;;;;;20.70;60.80;;;20.05;55.33;96040.47;6141639;23;19920;-87
2023/07/28 12:57:12;;;;;;;;;;;20.70;60.30;;;20.07;54.91;96045.69;6141481;23;19920;-88
2023/07/28 12:59:40;;;;;;;;;;;20.70;59.70;;;20.10;54.51;96036.66;6141753;23;20263;-87
2023/07/28 13:02:08;;;;;;;;;;;20.70;59.70;;;20.09;55.12;96046.16;6141240;23;20263;-88
2023/07/28 13:04:38;;;;;;;;;;;20.70;60.20;;;20.09;55.53;96043.38;6141306;23;19921;-87
2023/07/28 13:07:07;;;;;;;;;;;20.70;60.70;;;20.10;55.57;96045.00;6141549;23;19924;-87
2023/07/28 13:09:35;;;;;;;;;;;20.70;60.60;;;20.10;54.56;96045.00;6141278;23;20307;-88
2023/07/28 13:12:06;;;;;;;;;;;20.70;59.80;;;20.09;55.23;96046.16;6141971;23;19931;-88
2023/07/28 13:14:34;;;;;;;;;;;20.70;60.10;;;20.11;55.33;96046.63;6141539;23;20247;-87
2023/07/28 13:17:03;;;;;;;;;;;20.70;60.50;;;20.11;55.05;96046.63;6141728;23;19921;-87
2023/07/28 13:19:31;;;;;;;;;;;20.80;60.00;;;20.13;53.55;96033.22;6141609;23;19921;-88
2023/07/28 13:22:01;;;;;;;;;;;20.70;58.60;;;20.15;54.45;96024.53;6164759;23;19968;-87
2023/07/28 13:24:30;;;;;;;;;;;20.80;59.70;;;20.12;53.44;96026.03;6141371;23;19920;-87
2023/07/28 13:26:58;;;;;;;;;;;20.80;58.30;;;20.15;53.92;96030.94;6167067;23;19924;-87
2023/07/28 13:29:26;;;;;;;;;;;20.80;58.60;;;20.16;54.31;96031.72;6141413;23;19934;-87
2023/07/28 13:31:59;;;;;;;;;;;20.80;59.00;;;20.15;55.14;96019.81;6166428;23;19943;-87
2023/07/28 13:34:28;;;;;;;;;;;20.80;59.90;;;20.16;54.49;96026.16;6165616;23;19920;-87
2023/07/28 13:36:56;;;;;;;;;;;20.80;59.50;;;20.17;54.00;96031.41;6162386;23;19928;-87
2023/07/28 13:39:26;;;;;;;;;;;20.80;59.20;;;20.16;53.02;96024.22;6141186;23;19927;-88
2023/07/28 13:41:54;;;;;;;;;;;20.80;57.90;;;20.17;53.73;96017.50;6165583;23;19921;-88
2023/07/28 13:44:22;;;;;;;;;;;20.80;58.30;;;20.18;53.96;96024.69;6116867;23;19931;-87
2023/07/28 13:46:51;;;;;;;;;;;20.80;58.60;;;20.17;54.35;96025.84;6141176;23;20347;-88
2023/07/28 13:49:19;;;;;;;;;;;20.80;59.40;;;20.19;53.81;96023.56;6141325;23;19928;-87
2023/07/28 13:51:50;;;;;;;;;;;20.80;58.60;;;20.20;53.01;96022.38;6142218;23;19931;-89
2023/07/28 13:54:18;;;;;;;;;;;20.90;58.20;;;20.20;52.71;96022.38;6165084;23;19920;-87
2023/07/28 13:56:48;;;;;;;;;;;20.80;57.70;;;20.21;52.84;96012.88;6141374;23;19931;-88
2023/07/28 13:59:16;;;;;;;;;;;20.90;57.60;;;20.21;52.98;96018.44;6141816;23;19931;-88
2023/07/28 14:01:44;;;;;;;;;;;20.90;57.80;;;20.19;53.42;96020.78;6141926;23;19928;-87
2023/07/28 14:04:13;;;;;;;;;;;20.90;58.20;;;20.21;52.73;96026.78;6141375;23;19943;-87
2023/07/28 14:06:42;;;;;;;;;;;20.90;57.90;;;20.21;52.12;96012.88;6141519;23;19921;-88
2023/07/28 14:09:10;;;;;;;;;;;20.90;57.40;;;20.23;52.92;96015.34;6141564;23;20325;-88
2023/07/28 14:11:38;;;;;;;;;;;20.90;57.70;;;20.23;52.84;96009.78;6141950;23;19926;-87
2023/07/28 14:14:09;;;;;;;;;;;20.90;57.90;;;-151.14;100.00;62537.16;6165752;23;19921;-87
2023/07/28 14:16:37;;;;;;;;;;;20.90;57.90;;;20.21;nan;96004.53;6141957;23;19920;-88
2023/07/28 14:19:08;;;;;;;;;;;20.90;57.80;;;20.24;nan;96012.22;6142390;23;19920;-88
2023/07/28 14:21:37;;;;;;;;;;;20.90;58.40;;;20.23;nan;95999.47;6141446;23;19924;-87
2023/07/28 14:24:06;;;;;;;;;;;20.90;58.80;;;20.24;nan;96000.28;6165668;23;19932;-87
2023/07/28 14:26:34;;;;;;;;;;;20.90;57.30;;;20.24;nan;96006.66;6142157;23;19927;-87
2023/07/28 14:29:02;;;;;;;;;;;20.90;57.20;;;20.22;nan;96005.38;6142267;23;19920;-87
2023/07/28 14:31:32;;;;;;;;;;;20.90;57.10;;;20.25;nan;96013.03;6142012;23;19920;-87
2023/07/28 14:34:00;;;;;;;;;;;20.90;57.50;;;20.25;nan;96004.72;6141590;23;19944;-87
2023/07/28 14:36:28;;;;;;;;;;;20.90;57.80;;;20.26;nan;96002.72;6142114;23;19920;-87
2023/07/28 14:38:58;;;;;;;;;;;20.90;56.90;;;20.26;nan;95999.94;6141669;23;19931;-87
2023/07/28 14:41:26;;;;;;;;;;;20.90;57.40;;;20.27;nan;96004.34;6141701;23;19957;-87
2023/07/28 14:43:54;;;;;;;;;;;20.90;57.60;;;20.28;nan;96004.00;6141924;23;19920;-87
2023/07/28 14:46:24;;;;;;;;;;;20.90;56.90;;;20.27;nan;95996.03;6142070;23;19927;-87
2023/07/28 14:48:54;;;;;;;;;;;20.90;56.90;;;20.29;nan;95996.50;6142017;23;19920;-87
2023/07/28 14:51:27;;;;;;;;;;;20.90;57.50;;;20.29;nan;96004.84;6165810;23;19921;-87
2023/07/28 14:53:56;;;;;;;;;;;20.90;57.20;;;20.30;nan;95992.56;6141422;23;19920;-87
2023/07/28 14:56:25;;;;;;;;;;;20.90;56.10;;;20.30;nan;95995.34;6141262;23;19924;-87
2023/07/28 14:58:54;;;;;;;;;;;20.90;56.30;;;20.31;nan;95999.75;6141967;23;19920;-87
2023/07/28 15:01:23;;;;;;;;;;;21.00;56.30;;;20.31;nan;95995.00;6141832;23;19920;-87
2023/07/28 15:03:51;;;;;;;;;;;20.90;56.10;;;20.32;nan;95990.25;6165708;23;20260;-87
2023/07/28 15:06:20;;;;;;;;;;;21.00;56.30;;;20.32;nan;95991.06;6166577;23;19927;-87
2023/07/28 15:08:49;;;;;;;;;;;21.00;56.00;;;20.32;nan;95984.72;6146977;23;19924;-87
2023/07/28 15:11:17;;;;;;;;;;;21.00;56.10;;;20.31;nan;95983.06;6146831;23;19924;-88
2023/07/28 15:13:46;;;;;;;;;;;21.00;56.00;;;20.31;nan;95986.66;6171201;23;19927;-88
2023/07/28 15:16:14;;;;;;;;;;;21.00;56.50;;;20.32;nan;95990.25;6122352;23;19927;-88
2023/07/28 15:18:42;;;;;;;;;;;21.00;56.80;;;20.31;nan;95988.63;6171561;23;19920;-86
2023/07/28 15:21:11;;;;;;;;;;;21.00;57.70;;;20.29;nan;95986.19;6146463;23;19927;-86
2023/07/28 15:23:41;;;;;;;;;;;21.00;57.50;;;20.30;nan;95975.88;6145925;23;19927;-86
2023/07/28 15:26:09;;;;;;;;;;;21.00;57.70;;;20.30;nan;95981.44;6146572;23;19927;-87
2023/07/28 15:28:37;;;;;;;;;;;21.00;57.90;;;20.29;nan;95979.81;6171129;23;19920;-88
2023/07/28 15:31:06;;;;;;;;;;;21.00;57.90;;;20.29;nan;95988.16;6171650;23;19920;-87
2023/07/28 15:33:34;;;;;;;;;;;21.00;59.00;;;20.29;nan;95990.94;6145928;23;19924;-87
2023/07/28 15:36:02;;;;;;;;;;;20.90;59.00;;;20.28;nan;95983.75;6146534;23;19920;-87
2023/07/28 15:38:30;;;;;;;;;;;21.00;58.40;;;20.26;nan;95986.88;6170305;23;19927;-87
2023/07/28 15:41:00;;;;;;;;;;;20.90;58.50;;;20.28;nan;95998.44;6171112;23;20229;-87
2023/07/28 15:43:28;;;;;;;;;;;20.90;59.00;;;20.25;nan;95985.25;6146386;23;19927;-88
2023/07/28 15:45:56;;;;;;;;;;;20.90;58.90;;;20.27;nan;95982.13;6170495;23;19939;-88
2023/07/28 15:48:25;;;;;;;;;;;20.90;58.70;;;20.25;nan;95979.69;6171245;23;19920;-88
2023/07/28 15:50:53;;;;;;;;;;;20.90;58.10;;;20.24;nan;95973.31;6146556;23;19920;-87
2023/07/28 15:53:21;;;;;;;;;;;20.90;59.20;;;20.24;nan;95978.84;6146010;23;19920;-88
2023/07/28 15:55:50;;;;;;;;;;;20.90;59.50;;;20.26;nan;95977.72;6146161;23;19920;-88
2023/07/28 15:58:19;;;;;;;;;;;20.90;58.90;;;20.23;nan;95974.44;6171230;23;19920;-88
2023/07/28 16:00:47;;;;;;;;;;;20.90;59.00;;;20.24;nan;95978.06;6146246;23;19931;-88
2023/07/28 16:03:15;;;;;;;;;;;20.90;59.40;;;20.23;nan;95968.88;6146182;23;19920;-88
2023/07/28 16:05:44;;;;;;;;;;;20.90;59.10;;;20.24;nan;95976.06;6146364;23;19919;-88
2023/07/28 16:08:12;;;;;;;;;;;20.90;59.20;;;20.22;nan;95970.03;6146522;23;20336;-88
2023/07/28 16:10:40;;;;;;;;;;;20.90;59.10;;;20.22;nan;95972.81;6146095;23;19920;-88
2023/07/28 16:13:09;;;;;;;;;;;20.90;59.20;;;20.24;nan;95978.06;6170274;23;19920;-88
2023/07/28 16:15:38;;;;;;;;;;;20.90;59.60;;;20.24;nan;95978.06;6146097;23;19923;-88
2023/07/28 16:18:08;;;;;;;;;;;20.90;59.60;;;20.23;nan;95982.00;6145867;23;19930;-88
2023/07/28 16:20:37;;;;;;;;;;;20.90;60.00;;;20.22;nan;95988.69;6146339;23;19927;-88
2023/07/28 16:23:05;;;;;;;;;;;20.90;60.30;;;20.23;nan;95982.78;6168724;23;19927;-88
2023/07/28 16:25:33;;;;;;;;;;;20.90;60.10;;;20.21;nan;95975.94;6145832;23;20335;-88
2023/07/28 16:28:01;;;;;;;;;;;20.90;59.90;;;20.19;nan;95970.75;6169904;23;19920;-88
2023/07/28 16:30:30;;;;;;;;;;;20.90;60.10;;;20.21;nan;95985.09;6146220;23;19919;-88
2023/07/28 16:32:59;;;;;;;;;;;20.80;59.80;;;20.19;nan;95981.84;6169185;23;20343;-88
2023/07/28 16:35:28;;;;;;;;;;;20.80;59.80;;;20.21;nan;95981.50;6146012;23;20378;-88
2023/07/28 16:37:56;;;;;;;;;;;20.90;59.50;;;20.19;nan;95981.84;6145700;23;19920;-88
2023/07/28 16:40:24;;;;;;;;;;;20.80;59.80;;;20.18;nan;95976.63;6170276;23;19927;-88
2023/07/28 16:42:54;;;;;;;;;;;20.80;59.80;;;20.19;nan;95975.47;6145339;23;19920;-88
2023/07/28 16:45:22;;;;;;;;;;;20.80;59.80;;;20.16;nan;95971.41;6146247;23;19920;-88
2023/07/28 16:47:50;;;;;;;;;;;20.80;60.00;;;20.16;nan;95974.19;6122764;23;19920;-88
2023/07/28 16:50:20;;;;;;;;;;;20.80;60.20;;;20.15;nan;95972.56;6147280;23;19924;-88
2023/07/28 16:52:49;;;;;;;;;;;20.80;60.30;;;20.14;nan;95970.13;6171647;23;19924;-88
2023/07/28 16:55:17;;;;;;;;;;;20.80;60.50;;;20.12;nan;95978.00;6147012;23;20351;-88
2023/07/28 16:57:45;;;;;;;;;;;20.70;60.80;;;20.11;nan;95987.47;6147064;23;19920;-88
2023/07/28 17:00:14;;;;;;;;;;;20.70;61.60;;;20.10;nan;95980.28;6147195;23;20343;-88
2023/07/28 17:02:44;;;;;;;;;;;20.70;62.20;;;20.06;nan;95982.94;6147074;23;19927;-88
2023/07/28 17:05:12;;;;;;;;;;;20.70;62.70;;;20.06;nan;95982.94;6147374;23;19920;-88
2023/07/28 17:07:43;;;;;;;;;;;20.70;63.30;;;20.03;nan;95972.50;6172033;23;19927;-88
2023/07/28 17:10:11;;;;;;;;;;;20.70;63.70;;;20.03;nan;95983.59;6147605;23;19924;-88
2023/07/28 17:12:39;;;;;;;;;;;20.60;64.30;;;20.00;nan;95985.09;6147373;23;19920;-88
2023/07/28 17:15:08;;;;;;;;;;;20.60;64.40;;;19.98;nan;95989.34;6146079;23;19924;-88
2023/07/28 17:17:39;;;;;;;;;;;20.60;64.80;;;19.97;nan;95983.00;6146320;23;19920;-88
2023/07/28 17:20:08;;;;;;;;;;;20.60;65.10;;;19.96;nan;95983.31;6146406;23;19924;-87
2023/07/28 17:22:36;;;;;;;;;;;20.60;65.30;;;19.95;nan;95992.78;6170444;23;20343;-88
2023/07/28 17:25:07;;;;;;;;;;;20.60;65.80;;;19.92;nan;95989.56;6146046;23;19927;-88
2023/07/28 17:27:36;;;;;;;;;;;20.60;65.80;;;19.95;nan;95995.56;6170938;23;20255;-88
2023/07/28 17:30:05;;;;;;;;;;;20.60;66.10;;;19.92;nan;95988.72;6146830;23;19920;-88
2023/07/28 17:32:36;;;;;;;;;;;20.60;66.60;;;19.92;nan;95997.91;6168776;23;19919;-88
2023/07/28 17:35:06;;;;;;;;;;;20.50;66.20;;;19.90;nan;95997.41;6121685;23;19920;-88
2023/07/28 17:37:35;;;;;;;;;;;20.50;66.00;;;19.89;nan;96009.69;6145913;23;19920;-88
2023/07/28 17:40:13;;;;;;;;;;;20.50;66.60;;;19.89;nan;96011.63;6146920;23;19927;-88
2023/07/28 17:42:41;;;;;;;;;;;20.50;67.30;;;19.88;nan;96001.69;6170500;23;19920;-87
2023/07/28 17:45:09;;;;;;;;;;;20.50;67.80;;;19.87;nan;95997.28;6146043;23;19931;-87
2023/07/28 17:47:38;;;;;;;;;;;20.50;67.70;;;19.85;nan;95996.78;6146023;23;19924;-87
2023/07/28 17:50:07;;;;;;;;;;;20.50;67.80;;;19.86;nan;96002.00;6145771;23;19920;-87
2023/07/28 17:52:35;;;;;;;;;;;20.50;68.00;;;19.84;nan;96000.69;6146109;23;19934;-87
2023/07/28 17:55:03;;;;;;;;;;;20.40;67.00;;;19.82;nan;96003.78;6145863;23;19920;-88
2023/07/28 17:57:34;;;;;;;;;;;20.40;66.90;;;19.78;nan;96002.84;6146846;23;19920;-88
2023/07/28 18:00:03;;;;;;;;;;;20.40;66.80;;;19.77;nan;96009.56;6171604;23;19927;-88
2023/07/28 18:02:35;;;;;;;;;;;20.40;66.80;;;19.73;nan;96003.03;6171480;23;19920;-88
2023/07/28 18:05:04;;;;;;;;;;;20.40;67.40;;;19.71;nan;96006.16;6170231;23;19920;-88
2023/07/28 18:07:33;;;;;;;;;;;20.30;67.50;;;19.67;nan;96010.75;6147290;23;19920;-88
2023/07/28 18:10:01;;;;;;;;;;;20.30;67.80;;;19.66;nan;96013.88;6147106;23;19919;-88
2023/07/28 18:12:30;;;;;;;;;;;20.20;67.80;;;19.59;nan;96009.63;6170858;23;20267;-88
2023/07/28 18:15:00;;;;;;;;;;;20.20;67.90;;;19.55;nan;96011.47;6146587;23;19924;-88
2023/07/28 18:17:35;;;;;;;;;;;20.20;68.30;;;19.50;nan;96017.19;6147256;23;20262;-87
2023/07/28 18:20:04;;;;;;;;;;;20.10;68.50;;;19.45;nan;96009.88;6197103;23;19927;-87
2023/07/28 18:22:33;;;;;;;;;;;20.00;68.40;;;19.42;nan;96020.84;6170940;23;19927;-87
2023/07/28 18:25:01;;;;;;;;;;;20.00;68.70;;;19.37;nan;96015.44;6146791;23;19920;-87
2023/07/28 18:27:34;;;;;;;;;;;20.00;68.80;;;19.31;nan;96015.63;6147100;23;20254;-87
2023/07/28 18:30:07;;;;;;;;;;;19.90;68.90;;;19.27;nan;96014.69;6171067;23;19920;-87
2023/07/28 18:32:36;;;;;;;;;;;19.90;69.00;;;19.23;nan;96024.81;6147079;23;20332;-87
2023/07/28 18:35:04;;;;;;;;;;;19.80;69.10;;;19.18;nan;96016.63;6170147;23;20339;-87
2023/07/28 18:37:44;;;;;;;;;;;19.70;69.30;;;19.15;nan;96012.56;6171658;23;19923;-87
2023/07/28 18:40:19;;;;;;;;;;;19.70;69.50;;;19.07;nan;96013.44;6172048;23;19920;-87
2023/07/28 18:42:48;;;;;;;;;;;19.60;69.30;;;19.01;nan;96026.66;6146746;23;19920;-87
2023/07/28 18:45:21;;;;;;;;;;;19.60;69.90;;;18.95;nan;96030.75;6171068;23;19920;-87
2023/07/28 18:48:25;;;;;;;;;;;19.50;69.80;;;18.90;nan;96030.91;6171666;23;19927;-88
2023/07/28 18:50:56;;;;;;;;;;;19.50;70.20;;;18.85;nan;96036.59;6171505;23;19927;-88
2023/07/28 18:53:26;;;;;;;;;;;19.40;70.40;;;18.82;nan;96031.72;6146943;23;19920;-88
2023/07/28 18:55:55;;;;;;;;;;;19.40;70.30;;;18.78;nan;96036.31;6146646;23;19920;-88
2023/07/28 18:58:23;;;;;;;;;;;19.30;70.30;;;18.74;nan;96040.88;6146753;23;20339;-88
2023/07/28 19:00:53;;;;;;;;;;;19.30;70.30;;;18.71;nan;96048.69;6146818;23;19920;-87
2023/07/28 19:03:23;;;;;;;;;;;19.30;70.30;;;18.64;nan;96048.38;6146211;23;19924;-88
2023/07/28 19:08:54;;;;;;;;;;;19.20;70.40;;;18.58;nan;96049.66;6146703;23;19931;-88
2023/07/28 19:11:22;;;;;;;;;;;19.20;70.70;;;18.54;nan;96052.28;6147072;23;19920;-88
2023/07/28 19:13:53;;;;;;;;;;;19.10;71.00;;;18.53;nan;96058.97;6170355;23;20108;-87
2023/07/28 19:16:30;;;;;;;;;;;19.10;71.20;;;18.52;nan;96059.31;6122308;23;19927;-88
2023/07/28 19:18:58;;;;;;;;;;;19.10;71.30;;;18.51;nan;96055.72;6146685;23;19924;-88
2023/07/28 19:21:26;;;;;;;;;;;19.10;71.40;;;18.50;nan;96061.59;6146558;23;19927;-88
2023/07/28 19:23:55;;;;;;;;;;;19.10;71.40;;;18.49;nan;96068.28;6146209;23;19976;-88
2023/07/28 19:26:55;;;;;;;;;;;19.00;71.20;;;18.46;nan;96063.38;6146449;23;19935;-88
2023/07/28 19:29:28;;;;;;;;;;;19.00;71.10;;;18.43;nan;96062.06;6188311;23;20251;-88
2023/07/28 19:32:01;;;;;;;;;;;19.00;71.20;;;18.36;nan;96065.31;6146769;23;19920;-88
2023/07/28 19:35:02;;;;;;;;;;;18.90;71.40;;;18.32;nan;96058.78;6146648;23;20331;-88
2023/07/28 19:37:31;;;;;;;;;;;18.90;71.40;;;18.30;nan;96066.59;6140310;23;19920;-88
2023/07/28 19:40:24;;;;;;;;;;;18.90;71.50;;;18.26;nan;96062.88;6122502;23;19924;-88
2023/07/28 19:43:03;;;;;;;;;;;18.90;71.70;;;18.20;nan;96061.38;6147252;23;19920;-88
2023/07/28 19:45:31;;;;;;;;;;;18.80;71.50;;;18.21;nan;96066.59;6170827;23;20255;-88
2023/07/28 19:48:09;;;;;;;;;;;18.80;71.60;;;18.16;nan;96064.00;6146218;23;19920;-88
2023/07/28 19:50:37;;;;;;;;;;;18.70;71.60;;;18.13;nan;96077.69;6146350;23;20388;-88
2023/07/28 19:53:07;;;;;;;;;;;18.70;71.70;;;18.11;nan;96088.25;6146260;23;19927;-88
2023/07/28 19:55:45;;;;;;;;;;;18.70;72.00;;;18.08;nan;96079.47;6146204;23;20232;-88
2023/07/28 19:58:21;;;;;;;;;;;18.70;72.00;;;18.04;nan;96086.78;6146437;23;19920;-88
2023/07/28 20:00:52;;;;;;;;;;;18.60;72.00;;;17.99;nan;96073.09;6146614;23;19920;-88
2023/07/28 20:03:23;;;;;;;;;;;18.60;72.00;;;18.00;nan;96087.75;6146120;23;20263;-88
2023/07/28 20:05:52;;;;;;;;;;;18.50;72.20;;;17.95;nan;96089.47;6146213;23;19920;-88
2023/07/28 20:08:25;;;;;;;;;;;18.50;72.40;;;17.95;nan;96089.47;6121907;23;19920;-87
2023/07/28 20:10:54;;;;;;;;;;;18.50;72.60;;;17.92;nan;96084.59;6146604;23;20265;-88
2023/07/28 20:13:22;;;;;;;;;;;18.50;72.50;;;17.90;nan;96088.81;6146534;23;20335;-88
2023/07/28 20:15:55;;;;;;;;;;;18.50;72.30;;;17.90;nan;96088.81;6146114;23;19939;-88
2023/07/28 20:18:35;;;;;;;;;;;18.50;72.30;;;17.87;nan;96087.50;6146139;23;20259;-87
2023/07/28 20:21:05;;;;;;;;;;;18.40;72.50;;;17.86;nan;96090.59;6147325;23;19920;-88
2023/07/28 20:23:34;;;;;;;;;;;18.40;72.70;;;17.87;nan;96086.72;6172294;23;19919;-88
2023/07/28 20:26:14;;;;;;;;;;;18.40;72.60;;;17.85;nan;96088.97;6123326;23;19919;-88
2023/07/28 20:28:45;;;;;;;;;;;18.40;72.30;;;17.83;nan;96088.47;6147497;23;20339;-87
2023/07/28 20:31:14;;;;;;;;;;;18.40;72.40;;;17.81;nan;96082.44;6123575;23;19920;-87
2023/07/28 20:33:44;;;;;;;;;;;18.40;72.30;;;17.78;nan;96087.47;6147515;23;19920;-87
2023/07/28 20:36:12;;;;;;;;;;;18.40;72.30;;;17.77;nan;96093.34;6147369;23;19927;-88
2023/07/28 20:38:41;;;;;;;;;;;18.30;72.50;;;17.73;nan;96084.88;6147592;23;19920;-88
2023/07/28 20:41:12;;;;;;;;;;;18.30;72.70;;;17.70;nan;96090.19;6147305;23;19920;-87
2023/07/28 20:43:43;;;;;;;;;;;18.30;72.40;;;17.66;nan;96086.47;6146820;23;19935;-88
2023/07/28 20:46:12;;;;;;;;;;;18.30;72.30;;;17.61;nan;96091.00;6147170;23;19920;-87
2023/07/28 20:48:42;;;;;;;;;;;18.20;72.30;;;17.58;nan;96094.38;6147683;23;19920;-87
2023/07/28 20:51:13;;;;;;;;;;;18.20;72.40;;;17.54;nan;96093.41;6163638;23;19924;-87
2023/07/28 20:53:41;;;;;;;;;;;18.10;72.50;;;17.51;nan;96094.03;6197121;23;19920;-87
2023/07/28 20:56:09;;;;;;;;;;;18.10;72.60;;;17.51;nan;96098.75;6122894;23;19923;-87
2023/07/28 20:58:38;;;;;;;;;;;18.10;72.50;;;17.48;nan;96095.50;6146157;23;19942;-88
2023/07/28 21:01:06;;;;;;;;;;;18.10;72.50;;;17.47;nan;96088.34;6147360;23;19920;-88
2023/07/28 21:03:34;;;;;;;;;;;18.10;72.60;;;17.43;nan;96098.41;6147103;23;19920;-87
2023/07/28 21:06:02;;;;;;;;;;;18.00;72.50;;;17.41;nan;96089.59;6147343;23;19920;-87
2023/07/28 21:08:32;;;;;;;;;;;18.00;72.60;;;17.40;nan;96090.72;6171485;23;19920;-87
2023/07/28 21:11:01;;;;;;;;;;;18.00;72.50;;;17.37;nan;96093.31;6147179;23;19920;-88
2023/07/28 21:13:29;;;;;;;;;;;18.00;72.70;;;17.33;nan;96093.16;6147155;23;19926;-87
2023/07/28 21:15:57;;;;;;;;;;;17.90;72.80;;;17.30;nan;96086.28;6147187;23;19920;-88
2023/07/28 21:18:28;;;;;;;;;;;17.90;72.90;;;17.29;nan;96089.38;6147043;23;19920;-87
2023/07/28 21:21:00;;;;;;;;;;;17.90;73.00;;;17.29;nan;96095.72;6147674;23;20251;-88
2023/07/28 21:23:32;;;;;;;;;;;17.90;73.00;;;17.27;nan;96088.88;6146601;23;20240;-88
2023/07/28 21:26:16;;;;;;;;;;;17.90;73.10;;;17.28;nan;96084.97;6147039;23;20232;-88
2023/07/28 21:29:39;;;;;;;;;;;17.90;72.90;;;17.28;nan;96096.03;6149301;23;19919;-88
2023/07/28 21:33:05;;;;;;;;;;;17.90;73.00;;;17.26;nan;96085.28;6172167;23;19920;-88
2023/07/28 21:36:09;;;;;;;;;;;;;;;;;;;;;
2023/07/28 21:39:06;;;;;;;;;;;17.80;72.80;;;17.27;nan;96091.63;6172288;23;19920;-88
2023/07/28 21:41:36;;;;;;;;;;;17.90;73.20;;;17.29;nan;96090.19;6147247;23;20340;-88